Terminal Aerodrome Forecast
Issued by NWS

Home | Current Version | Previous Version | Graphics & Text | Print | Product List | Glossary On
Versions: 1 2 3 4 5 6 7 8 9 10 11 12 13 14 15 16 17
599
FTUS43 KFGF 250208 AAA
TAFBJI
TAF AMD
KBJI 250208Z 2502/2524 10009KT P6SM SCT008 BKN050
     FM250330 03005KT 5SM BR OVC006
     FM250600 32007KT 3SM BR OVC003
     FM251600 35010KT P6SM OVC008=

USA.gov is the U.S. government's official web portal to all federal, state and local government web resources and services.